Wrightsboro, Texas
Current Conditions -  °F | °C
As of 1:15 PM on Friday 21 Nov 2014 (Local Time) from KT20 Reporting Station
Overcast Overcast  
Wind Chill: 75°   Ceiling: 2200
Heat Index: 75°   Visibility: 10mi
Dew Point: 67°   Wind: 10mph
Humidity: 76%   Direction: 160°SSE
Pressure: 30.03"   Gusts: 18mph
Location:  29.37°N, 97.56°W
Report Text: KT20 211915Z AUTO 16009G16KT 10SM BKN022 BKN029 OVC034 24/20 A3003 RMK AO2 T02400196
Loading
Personal Weather Stations






























Interactive Weather Map New forecast layout! Learn more

10-Day Weather Forecast

Advertisements
Track Severe Weather on mobile